Highland-University Park's Hourly Summary for Monday, April 17, 2017
Hour Temp
(f)
RH
(%)
Solar Rad.
(MJ/m2)
Rainfall
(in)
Wind
(mph)
4/17/2017 12:00 AM 70 84 0 0 0.12
4/17/2017 1:00 AM 71 83 0 0 0.44
4/17/2017 2:00 AM 72 78 0 0 1.36
4/17/2017 3:00 AM 72 79 0 0 0.58
4/17/2017 4:00 AM 72 79 0 0 0.83
4/17/2017 5:00 AM 71 81 0 0 0.69
4/17/2017 6:00 AM 69 85 0 0 0.77
4/17/2017 7:00 AM 69 86 0 0 0.88
4/17/2017 8:00 AM 68 89 0.07 0 1.5
4/17/2017 9:00 AM 68 87 0.22 0 1.33
4/17/2017 10:00 AM 70 83 0.36 0 1.48
4/17/2017 11:00 AM 71 81 0.42 0 1.67
4/17/2017 12:00 PM 71 80 0.69 0 2.22
4/17/2017 1:00 PM 74 72 1.66 0 3.33
4/17/2017 2:00 PM 67 80 0.39 0.06 4.54
4/17/2017 3:00 PM 64 95 0.03 0.6 1.54
4/17/2017 4:00 PM 63 95 0.08 0.3 1.52
4/17/2017 5:00 PM 62 95 0.07 0.1 0.94
4/17/2017 6:00 PM 62 97 0.04 0.09 0.2
4/17/2017 7:00 PM 62 90 0.04 0.03 3.41
4/17/2017 8:00 PM 62 90 0.02 0.01 2.21
4/17/2017 9:00 PM 64 88 0 0 2.04
4/17/2017 10:00 PM 63 90 0 0 0.58
4/17/2017 11:00 PM 63 92 0 0 0.82
Data Summary 67 85 4.09 1.19 1.46